Terminal Aerodrome Forecast
Issued by NWS

Home | Current Version | Previous Version | Text Only | Print | Product List | Glossary On
Versions: 1 2 3 4 5 6 7 8 9 10 11 12 13 14 15 16 17 18 19 20 21 22
000
FTUS44 KLZK 040500
TAFADF
TAF
KADF 040539Z 0406/0506 36003KT 1SM BR OVC004
      TEMPO 0406/0410 1/2SM RA FG OVC002
     FM041000 03006KT 2SM -RA BR OVC003
     FM042000 04010KT 3SM -RAPL BR OVC003
     FM050200 04015G25KT 2SM -SNPL BR OVC003=

USA.gov is the U.S. government's official web portal to all federal, state and local government web resources and services.